Playas, New Mexico
Current Conditions -  °F | °C
As of 7:15 PM on Monday 22 Dec 2014 (Local Time) from KLSB Reporting Station
Clear Clear  
Wind Chill: 46°   Ceiling: Unl
Heat Index: 48°   Visibility: 10mi
Dew Point: 36°   Wind: 5mph
Humidity: 62%   Direction: 270°W
Pressure: 29.87"   Gusts: NA
Location:  31.92°N, 108.53°W
Report Text: KLSB 230215Z AUTO 27004KT 10SM CLR 09/02 A2987 RMK AO2
Loading
Personal Weather Stations






























Interactive Weather Map New forecast layout! Learn more

10-Day Weather Forecast

Advertisements
Track Severe Weather on mobile